sensor_id;sensor_type;location;lat;lon;timestamp;P1;durP1;ratioP1;P2;durP2;ratioP2
70924;SDS011;58577;52.410;13.242;2022-12-19T00:00:10;39.53;;;15.90;;
70924;SDS011;58577;52.410;13.242;2022-12-19T00:02:59;42.00;;;17.25;;
70924;SDS011;58577;52.410;13.242;2022-12-19T00:05:45;34.60;;;16.00;;
70924;SDS011;58577;52.410;13.242;2022-12-19T00:08:30;36.83;;;15.40;;
70924;SDS011;58577;52.410;13.242;2022-12-19T00:11:18;37.67;;;14.93;;
70924;SDS011;58577;52.410;13.242;2022-12-19T00:14:05;40.05;;;15.77;;
70924;SDS011;58577;52.410;13.242;2022-12-19T00:16:53;36.50;;;14.63;;
70924;SDS011;58577;52.410;13.242;2022-12-19T00:19:39;36.78;;;14.45;;
70924;SDS011;58577;52.410;13.242;2022-12-19T00:22:25;35.60;;;14.43;;
70924;SDS011;58577;52.410;13.242;2022-12-19T00:25:11;33.63;;;13.60;;
70924;SDS011;58577;52.410;13.242;2022-12-19T00:27:56;39.08;;;14.15;;
70924;SDS011;58577;52.410;13.242;2022-12-19T00:30:42;34.00;;;13.82;;
70924;SDS011;58577;52.410;13.242;2022-12-19T00:33:28;38.03;;;16.17;;
70924;SDS011;58577;52.410;13.242;2022-12-19T00:36:19;33.65;;;14.85;;
70924;SDS011;58577;52.410;13.242;2022-12-19T00:39:06;29.55;;;11.80;;
70924;SDS011;58577;52.410;13.242;2022-12-19T00:41:52;38.78;;;14.38;;
70924;SDS011;58577;52.410;13.242;2022-12-19T00:44:41;35.28;;;14.02;;
70924;SDS011;58577;52.410;13.242;2022-12-19T00:47:27;34.13;;;13.60;;
70924;SDS011;58577;52.410;13.242;2022-12-19T00:50:13;30.00;;;12.05;;
70924;SDS011;58577;52.410;13.242;2022-12-19T00:52:59;37.30;;;14.07;;
70924;SDS011;58577;52.410;13.242;2022-12-19T00:55:44;36.55;;;14.23;;
70924;SDS011;58577;52.410;13.242;2022-12-19T00:58:30;35.65;;;14.68;;
70924;SDS011;58577;52.410;13.242;2022-12-19T01:01:27;31.40;;;14.75;;
70924;SDS011;58577;52.410;13.242;2022-12-19T01:04:18;31.23;;;12.63;;
70924;SDS011;58577;52.410;13.242;2022-12-19T01:07:04;32.05;;;12.85;;
70924;SDS011;58577;52.410;13.242;2022-12-19T01:09:52;34.63;;;13.65;;
70924;SDS011;58577;52.410;13.242;2022-12-19T01:12:38;30.25;;;12.45;;
70924;SDS011;58577;52.410;13.242;2022-12-19T01:15:33;34.15;;;13.68;;
70924;SDS011;58577;52.410;13.242;2022-12-19T01:18:22;30.42;;;11.38;;
70924;SDS011;58577;52.410;13.242;2022-12-19T01:21:09;30.25;;;12.15;;
70924;SDS011;58577;52.410;13.242;2022-12-19T01:23:58;31.38;;;12.70;;
70924;SDS011;58577;52.410;13.242;2022-12-19T01:26:51;32.45;;;13.13;;
70924;SDS011;58577;52.410;13.242;2022-12-19T01:29:37;29.63;;;12.55;;
70924;SDS011;58577;52.410;13.242;2022-12-19T01:32:23;35.90;;;13.75;;
70924;SDS011;58577;52.410;13.242;2022-12-19T01:35:10;25.98;;;11.90;;
70924;SDS011;58577;52.410;13.242;2022-12-19T01:37:56;23.50;;;10.55;;
70924;SDS011;58577;52.410;13.242;2022-12-19T01:40:55;34.45;;;12.60;;
70924;SDS011;58577;52.410;13.242;2022-12-19T01:43:58;27.90;;;12.60;;
70924;SDS011;58577;52.410;13.242;2022-12-19T01:46:49;27.63;;;13.02;;
70924;SDS011;58577;52.410;13.242;2022-12-19T01:49:47;34.20;;;12.57;;
70924;SDS011;58577;52.410;13.242;2022-12-19T01:52:33;32.38;;;12.77;;
70924;SDS011;58577;52.410;13.242;2022-12-19T01:55:19;31.13;;;12.73;;
70924;SDS011;58577;52.410;13.242;2022-12-19T01:58:09;31.40;;;12.88;;
70924;SDS011;58577;52.410;13.242;2022-12-19T02:00:57;35.83;;;12.85;;
70924;SDS011;58577;52.410;13.242;2022-12-19T02:03:44;28.27;;;11.32;;
70924;SDS011;58577;52.410;13.242;2022-12-19T02:06:30;31.35;;;11.23;;
70924;SDS011;58577;52.410;13.242;2022-12-19T02:09:19;27.35;;;12.18;;
70924;SDS011;58577;52.410;13.242;2022-12-19T02:12:09;26.42;;;10.73;;
70924;SDS011;58577;52.410;13.242;2022-12-19T02:14:56;32.55;;;12.95;;
70924;SDS011;58577;52.410;13.242;2022-12-19T02:17:59;27.42;;;12.05;;
70924;SDS011;58577;52.410;13.242;2022-12-19T02:24:18;29.23;;;11.60;;
70924;SDS011;58577;52.410;13.242;2022-12-19T02:27:46;28.33;;;11.10;;
70924;SDS011;58577;52.410;13.242;2022-12-19T02:31:10;28.77;;;11.25;;
70924;SDS011;58577;52.410;13.242;2022-12-19T02:37:16;29.85;;;11.73;;
70924;SDS011;58577;52.410;13.242;2022-12-19T02:43:14;27.17;;;10.60;;
70924;SDS011;58577;52.410;13.242;2022-12-19T02:46:02;30.88;;;11.05;;
70924;SDS011;58577;52.410;13.242;2022-12-19T02:48:52;32.47;;;11.95;;
70924;SDS011;58577;52.410;13.242;2022-12-19T02:51:38;28.00;;;11.45;;
70924;SDS011;58577;52.410;13.242;2022-12-19T02:54:33;31.83;;;11.02;;
70924;SDS011;58577;52.410;13.242;2022-12-19T02:57:24;24.25;;;9.85;;
70924;SDS011;58577;52.410;13.242;2022-12-19T03:00:16;24.98;;;11.07;;
70924;SDS011;58577;52.410;13.242;2022-12-19T03:03:21;24.25;;;9.85;;
70924;SDS011;58577;52.410;13.242;2022-12-19T03:09:25;29.15;;;11.48;;
70924;SDS011;58577;52.410;13.242;2022-12-19T03:12:46;25.35;;;9.02;;
70924;SDS011;58577;52.410;13.242;2022-12-19T03:15:37;30.70;;;11.23;;
70924;SDS011;58577;52.410;13.242;2022-12-19T03:18:25;28.05;;;10.73;;
70924;SDS011;58577;52.410;13.242;2022-12-19T03:24:04;28.33;;;12.35;;
70924;SDS011;58577;52.410;13.242;2022-12-19T03:26:56;29.60;;;12.25;;
70924;SDS011;58577;52.410;13.242;2022-12-19T03:29:54;28.60;;;10.82;;
70924;SDS011;58577;52.410;13.242;2022-12-19T03:32:49;32.00;;;11.20;;
70924;SDS011;58577;52.410;13.242;2022-12-19T03:35:36;30.50;;;11.98;;
70924;SDS011;58577;52.410;13.242;2022-12-19T03:38:25;26.48;;;11.45;;
70924;SDS011;58577;52.410;13.242;2022-12-19T03:41:13;29.23;;;11.77;;
70924;SDS011;58577;52.410;13.242;2022-12-19T03:44:22;30.83;;;12.90;;
70924;SDS011;58577;52.410;13.242;2022-12-19T03:47:17;31.30;;;11.88;;
70924;SDS011;58577;52.410;13.242;2022-12-19T03:50:23;32.70;;;11.77;;
70924;SDS011;58577;52.410;13.242;2022-12-19T03:56:26;32.42;;;12.02;;
70924;SDS011;58577;52.410;13.242;2022-12-19T04:02:35;34.35;;;12.20;;
70924;SDS011;58577;52.410;13.242;2022-12-19T04:05:25;29.70;;;12.37;;
70924;SDS011;58577;52.410;13.242;2022-12-19T04:08:12;28.10;;;12.63;;
70924;SDS011;58577;52.410;13.242;2022-12-19T04:11:04;27.98;;;12.05;;
70924;SDS011;58577;52.410;13.242;2022-12-19T04:13:59;28.83;;;11.05;;
70924;SDS011;58577;52.410;13.242;2022-12-19T04:17:49;34.03;;;12.27;;
70924;SDS011;58577;52.410;13.242;2022-12-19T04:20:18;32.50;;;13.07;;
70924;SDS011;58577;52.410;13.242;2022-12-19T04:23:16;29.42;;;11.90;;
70924;SDS011;58577;52.410;13.242;2022-12-19T04:26:05;32.45;;;13.63;;
70924;SDS011;58577;52.410;13.242;2022-12-19T04:28:53;32.92;;;12.90;;
70924;SDS011;58577;52.410;13.242;2022-12-19T04:31:43;33.58;;;13.25;;
70924;SDS011;58577;52.410;13.242;2022-12-19T04:34:29;35.78;;;12.10;;
70924;SDS011;58577;52.410;13.242;2022-12-19T04:37:17;31.30;;;12.27;;
70924;SDS011;58577;52.410;13.242;2022-12-19T04:40:04;32.75;;;13.90;;
70924;SDS011;58577;52.410;13.242;2022-12-19T04:42:50;32.20;;;11.88;;
70924;SDS011;58577;52.410;13.242;2022-12-19T04:45:36;31.42;;;12.40;;
70924;SDS011;58577;52.410;13.242;2022-12-19T04:48:24;33.20;;;13.80;;
70924;SDS011;58577;52.410;13.242;2022-12-19T04:51:10;35.28;;;12.63;;
70924;SDS011;58577;52.410;13.242;2022-12-19T04:53:56;34.08;;;12.63;;
70924;SDS011;58577;52.410;13.242;2022-12-19T04:56:42;31.08;;;12.23;;
70924;SDS011;58577;52.410;13.242;2022-12-19T04:59:28;31.30;;;12.48;;
70924;SDS011;58577;52.410;13.242;2022-12-19T05:02:14;37.80;;;14.52;;
70924;SDS011;58577;52.410;13.242;2022-12-19T05:04:59;33.58;;;14.32;;
70924;SDS011;58577;52.410;13.242;2022-12-19T05:07:45;31.48;;;12.60;;
70924;SDS011;58577;52.410;13.242;2022-12-19T05:10:34;26.80;;;12.35;;
70924;SDS011;58577;52.410;13.242;2022-12-19T05:13:30;35.65;;;13.43;;
70924;SDS011;58577;52.410;13.242;2022-12-19T05:16:16;35.65;;;13.88;;
70924;SDS011;58577;52.410;13.242;2022-12-19T05:19:02;33.08;;;14.25;;
70924;SDS011;58577;52.410;13.242;2022-12-19T05:21:48;36.30;;;13.68;;
70924;SDS011;58577;52.410;13.242;2022-12-19T05:24:34;35.42;;;14.50;;
70924;SDS011;58577;52.410;13.242;2022-12-19T05:27:19;35.90;;;13.13;;
70924;SDS011;58577;52.410;13.242;2022-12-19T05:30:05;32.72;;;13.25;;
70924;SDS011;58577;52.410;13.242;2022-12-19T05:32:52;31.58;;;13.55;;
70924;SDS011;58577;52.410;13.242;2022-12-19T05:35:38;29.52;;;12.63;;
70924;SDS011;58577;52.410;13.242;2022-12-19T05:38:24;34.22;;;13.88;;
70924;SDS011;58577;52.410;13.242;2022-12-19T05:41:14;32.00;;;13.50;;
70924;SDS011;58577;52.410;13.242;2022-12-19T05:44:02;31.02;;;12.15;;
70924;SDS011;58577;52.410;13.242;2022-12-19T05:46:48;36.42;;;12.45;;
70924;SDS011;58577;52.410;13.242;2022-12-19T05:49:34;34.78;;;13.70;;
70924;SDS011;58577;52.410;13.242;2022-12-19T05:52:20;32.70;;;12.82;;
70924;SDS011;58577;52.410;13.242;2022-12-19T05:55:06;35.30;;;14.15;;
70924;SDS011;58577;52.410;13.242;2022-12-19T05:57:52;30.50;;;11.82;;
70924;SDS011;58577;52.410;13.242;2022-12-19T06:00:38;37.25;;;14.10;;
70924;SDS011;58577;52.410;13.242;2022-12-19T06:03:24;34.08;;;13.50;;
70924;SDS011;58577;52.410;13.242;2022-12-19T06:06:12;34.08;;;13.57;;
70924;SDS011;58577;52.410;13.242;2022-12-19T06:09:00;34.35;;;12.70;;
70924;SDS011;58577;52.410;13.242;2022-12-19T06:11:47;33.97;;;12.88;;
70924;SDS011;58577;52.410;13.242;2022-12-19T06:14:32;34.03;;;13.15;;
70924;SDS011;58577;52.410;13.242;2022-12-19T06:17:18;33.72;;;14.15;;
70924;SDS011;58577;52.410;13.242;2022-12-19T06:20:04;33.28;;;13.73;;
70924;SDS011;58577;52.410;13.242;2022-12-19T06:22:51;33.42;;;13.05;;
70924;SDS011;58577;52.410;13.242;2022-12-19T06:25:36;38.55;;;13.77;;
70924;SDS011;58577;52.410;13.242;2022-12-19T06:28:23;29.20;;;12.65;;
70924;SDS011;58577;52.410;13.242;2022-12-19T06:31:09;37.08;;;15.05;;
70924;SDS011;58577;52.410;13.242;2022-12-19T06:33:56;32.70;;;14.13;;
70924;SDS011;58577;52.410;13.242;2022-12-19T06:36:42;34.90;;;13.98;;
70924;SDS011;58577;52.410;13.242;2022-12-19T06:39:28;33.40;;;14.40;;
70924;SDS011;58577;52.410;13.242;2022-12-19T06:42:14;30.45;;;13.23;;
70924;SDS011;58577;52.410;13.242;2022-12-19T06:45:09;30.65;;;11.35;;
70924;SDS011;58577;52.410;13.242;2022-12-19T06:47:55;33.72;;;14.05;;
70924;SDS011;58577;52.410;13.242;2022-12-19T06:50:41;35.63;;;13.50;;
70924;SDS011;58577;52.410;13.242;2022-12-19T06:53:27;31.95;;;12.63;;
70924;SDS011;58577;52.410;13.242;2022-12-19T06:56:13;28.90;;;13.18;;
70924;SDS011;58577;52.410;13.242;2022-12-19T06:59:00;30.48;;;13.27;;
70924;SDS011;58577;52.410;13.242;2022-12-19T07:04:39;31.23;;;12.35;;
70924;SDS011;58577;52.410;13.242;2022-12-19T07:07:33;30.67;;;11.95;;
70924;SDS011;58577;52.410;13.242;2022-12-19T07:10:19;27.40;;;10.75;;
70924;SDS011;58577;52.410;13.242;2022-12-19T07:13:05;30.63;;;12.90;;
70924;SDS011;58577;52.410;13.242;2022-12-19T07:15:51;29.17;;;12.15;;
70924;SDS011;58577;52.410;13.242;2022-12-19T07:18:39;30.58;;;11.15;;
70924;SDS011;58577;52.410;13.242;2022-12-19T07:21:25;31.10;;;13.93;;
70924;SDS011;58577;52.410;13.242;2022-12-19T07:24:11;29.77;;;11.73;;
70924;SDS011;58577;52.410;13.242;2022-12-19T07:26:59;29.88;;;12.77;;
70924;SDS011;58577;52.410;13.242;2022-12-19T07:29:45;31.77;;;13.73;;
70924;SDS011;58577;52.410;13.242;2022-12-19T07:32:31;29.70;;;12.48;;
70924;SDS011;58577;52.410;13.242;2022-12-19T07:35:16;28.52;;;11.48;;
70924;SDS011;58577;52.410;13.242;2022-12-19T07:38:03;29.55;;;11.98;;
70924;SDS011;58577;52.410;13.242;2022-12-19T07:40:50;33.03;;;13.20;;
70924;SDS011;58577;52.410;13.242;2022-12-19T07:43:36;25.65;;;10.95;;
70924;SDS011;58577;52.410;13.242;2022-12-19T07:46:22;26.42;;;10.95;;
70924;SDS011;58577;52.410;13.242;2022-12-19T07:49:08;28.60;;;12.30;;
70924;SDS011;58577;52.410;13.242;2022-12-19T07:51:54;28.92;;;12.15;;
70924;SDS011;58577;52.410;13.242;2022-12-19T07:54:40;27.30;;;10.90;;
70924;SDS011;58577;52.410;13.242;2022-12-19T07:57:25;26.52;;;11.57;;
70924;SDS011;58577;52.410;13.242;2022-12-19T08:00:11;29.02;;;11.90;;
70924;SDS011;58577;52.410;13.242;2022-12-19T08:03:00;31.23;;;11.85;;
70924;SDS011;58577;52.410;13.242;2022-12-19T08:05:46;27.88;;;11.05;;
70924;SDS011;58577;52.410;13.242;2022-12-19T08:08:32;30.50;;;12.75;;
70924;SDS011;58577;52.410;13.242;2022-12-19T08:11:19;28.10;;;11.23;;
70924;SDS011;58577;52.410;13.242;2022-12-19T08:14:10;34.47;;;11.70;;
70924;SDS011;58577;52.410;13.242;2022-12-19T08:16:56;31.58;;;12.80;;
70924;SDS011;58577;52.410;13.242;2022-12-19T08:19:42;29.48;;;12.77;;
70924;SDS011;58577;52.410;13.242;2022-12-19T08:22:29;26.38;;;11.10;;
70924;SDS011;58577;52.410;13.242;2022-12-19T08:25:15;28.75;;;11.75;;
70924;SDS011;58577;52.410;13.242;2022-12-19T08:28:01;27.85;;;11.35;;
70924;SDS011;58577;52.410;13.242;2022-12-19T08:30:47;28.42;;;11.77;;
70924;SDS011;58577;52.410;13.242;2022-12-19T08:33:33;28.23;;;11.70;;
70924;SDS011;58577;52.410;13.242;2022-12-19T08:36:19;32.67;;;11.52;;
70924;SDS011;58577;52.410;13.242;2022-12-19T08:39:05;27.65;;;11.50;;
70924;SDS011;58577;52.410;13.242;2022-12-19T08:41:51;27.55;;;11.93;;
70924;SDS011;58577;52.410;13.242;2022-12-19T08:44:37;30.15;;;11.27;;
70924;SDS011;58577;52.410;13.242;2022-12-19T08:47:23;27.98;;;12.80;;
70924;SDS011;58577;52.410;13.242;2022-12-19T08:50:09;27.48;;;11.48;;
70924;SDS011;58577;52.410;13.242;2022-12-19T08:52:55;25.52;;;9.55;;
70924;SDS011;58577;52.410;13.242;2022-12-19T08:55:41;28.67;;;11.05;;
70924;SDS011;58577;52.410;13.242;2022-12-19T08:58:27;29.05;;;11.68;;
70924;SDS011;58577;52.410;13.242;2022-12-19T09:01:15;29.73;;;11.73;;
70924;SDS011;58577;52.410;13.242;2022-12-19T09:04:08;22.13;;;9.63;;
70924;SDS011;58577;52.410;13.242;2022-12-19T09:06:54;26.88;;;10.35;;
70924;SDS011;58577;52.410;13.242;2022-12-19T09:09:40;26.42;;;10.75;;
70924;SDS011;58577;52.410;13.242;2022-12-19T09:12:26;28.38;;;10.80;;
70924;SDS011;58577;52.410;13.242;2022-12-19T09:15:12;26.45;;;10.32;;
70924;SDS011;58577;52.410;13.242;2022-12-19T09:17:58;28.13;;;10.40;;
70924;SDS011;58577;52.410;13.242;2022-12-19T09:20:47;27.10;;;10.48;;
70924;SDS011;58577;52.410;13.242;2022-12-19T09:23:33;28.70;;;10.43;;
70924;SDS011;58577;52.410;13.242;2022-12-19T09:26:22;23.88;;;9.25;;
70924;SDS011;58577;52.410;13.242;2022-12-19T09:29:09;24.37;;;9.80;;
70924;SDS011;58577;52.410;13.242;2022-12-19T09:31:58;24.65;;;10.18;;
70924;SDS011;58577;52.410;13.242;2022-12-19T09:34:44;24.25;;;10.23;;
70924;SDS011;58577;52.410;13.242;2022-12-19T09:37:30;25.73;;;10.95;;
70924;SDS011;58577;52.410;13.242;2022-12-19T09:40:16;27.83;;;10.15;;
70924;SDS011;58577;52.410;13.242;2022-12-19T09:49:21;28.20;;;10.80;;
70924;SDS011;58577;52.410;13.242;2022-12-19T09:52:14;27.90;;;10.65;;
70924;SDS011;58577;52.410;13.242;2022-12-19T09:55:05;27.30;;;12.07;;
70924;SDS011;58577;52.410;13.242;2022-12-19T09:58:11;24.55;;;10.75;;
70924;SDS011;58577;52.410;13.242;2022-12-19T10:01:07;24.67;;;9.63;;
70924;SDS011;58577;52.410;13.242;2022-12-19T10:04:09;26.13;;;10.35;;
70924;SDS011;58577;52.410;13.242;2022-12-19T10:07:00;25.60;;;10.15;;
70924;SDS011;58577;52.410;13.242;2022-12-19T10:09:46;24.52;;;10.27;;
70924;SDS011;58577;52.410;13.242;2022-12-19T10:12:41;26.33;;;10.60;;
70924;SDS011;58577;52.410;13.242;2022-12-19T10:18:50;23.73;;;10.07;;
70924;SDS011;58577;52.410;13.242;2022-12-19T10:30:32;26.60;;;10.25;;
70924;SDS011;58577;52.410;13.242;2022-12-19T10:33:25;27.98;;;11.40;;
70924;SDS011;58577;52.410;13.242;2022-12-19T10:36:21;26.27;;;11.10;;
70924;SDS011;58577;52.410;13.242;2022-12-19T10:39:30;22.33;;;10.20;;
70924;SDS011;58577;52.410;13.242;2022-12-19T10:42:24;23.15;;;9.63;;
70924;SDS011;58577;52.410;13.242;2022-12-19T10:45:17;22.25;;;9.27;;
70924;SDS011;58577;52.410;13.242;2022-12-19T10:48:05;22.98;;;9.15;;
70924;SDS011;58577;52.410;13.242;2022-12-19T10:50:59;26.65;;;10.32;;
70924;SDS011;58577;52.410;13.242;2022-12-19T10:53:51;24.13;;;8.85;;
70924;SDS011;58577;52.410;13.242;2022-12-19T10:56:39;23.00;;;10.93;;
70924;SDS011;58577;52.410;13.242;2022-12-19T10:59:25;26.35;;;10.05;;
70924;SDS011;58577;52.410;13.242;2022-12-19T11:02:11;26.15;;;10.23;;
70924;SDS011;58577;52.410;13.242;2022-12-19T11:08:34;24.17;;;10.38;;
70924;SDS011;58577;52.410;13.242;2022-12-19T11:11:20;23.30;;;9.55;;
70924;SDS011;58577;52.410;13.242;2022-12-19T11:14:28;28.40;;;11.18;;
70924;SDS011;58577;52.410;13.242;2022-12-19T11:17:26;23.30;;;10.57;;
70924;SDS011;58577;52.410;13.242;2022-12-19T11:20:21;25.70;;;11.18;;
70924;SDS011;58577;52.410;13.242;2022-12-19T11:23:11;24.88;;;10.73;;
70924;SDS011;58577;52.410;13.242;2022-12-19T11:26:04;27.85;;;10.73;;
70924;SDS011;58577;52.410;13.242;2022-12-19T11:28:51;26.70;;;11.10;;
70924;SDS011;58577;52.410;13.242;2022-12-19T11:31:37;27.10;;;10.18;;
70924;SDS011;58577;52.410;13.242;2022-12-19T11:34:23;29.88;;;11.95;;
70924;SDS011;58577;52.410;13.242;2022-12-19T11:37:19;31.42;;;12.45;;
70924;SDS011;58577;52.410;13.242;2022-12-19T11:49:34;29.15;;;12.10;;
70924;SDS011;58577;52.410;13.242;2022-12-19T11:52:32;26.33;;;11.70;;
70924;SDS011;58577;52.410;13.242;2022-12-19T11:55:45;25.35;;;11.07;;
70924;SDS011;58577;52.410;13.242;2022-12-19T11:58:41;29.25;;;12.43;;
70924;SDS011;58577;52.410;13.242;2022-12-19T12:01:41;29.15;;;12.13;;
70924;SDS011;58577;52.410;13.242;2022-12-19T12:20:35;30.15;;;12.90;;
70924;SDS011;58577;52.410;13.242;2022-12-19T12:23:26;30.33;;;11.68;;
70924;SDS011;58577;52.410;13.242;2022-12-19T12:29:29;31.92;;;13.13;;
70924;SDS011;58577;52.410;13.242;2022-12-19T12:35:36;34.13;;;14.32;;
70924;SDS011;58577;52.410;13.242;2022-12-19T12:44:43;31.48;;;13.30;;
70924;SDS011;58577;52.410;13.242;2022-12-19T12:47:32;33.40;;;14.18;;
70924;SDS011;58577;52.410;13.242;2022-12-19T12:50:21;33.08;;;13.02;;
70924;SDS011;58577;52.410;13.242;2022-12-19T12:53:09;29.00;;;12.70;;
70924;SDS011;58577;52.410;13.242;2022-12-19T12:55:59;28.73;;;11.88;;
70924;SDS011;58577;52.410;13.242;2022-12-19T13:01:39;33.35;;;13.30;;
70924;SDS011;58577;52.410;13.242;2022-12-19T13:04:29;28.52;;;12.55;;
70924;SDS011;58577;52.410;13.242;2022-12-19T13:07:28;29.23;;;13.57;;
70924;SDS011;58577;52.410;13.242;2022-12-19T13:10:26;30.98;;;14.07;;
70924;SDS011;58577;52.410;13.242;2022-12-19T13:13:14;33.58;;;13.25;;
70924;SDS011;58577;52.410;13.242;2022-12-19T13:16:01;34.67;;;13.40;;
70924;SDS011;58577;52.410;13.242;2022-12-19T13:19:25;35.35;;;14.43;;
70924;SDS011;58577;52.410;13.242;2022-12-19T13:22:15;37.67;;;13.68;;
70924;SDS011;58577;52.410;13.242;2022-12-19T13:25:26;37.63;;;14.65;;
70924;SDS011;58577;52.410;13.242;2022-12-19T13:28:32;31.15;;;12.88;;
70924;SDS011;58577;52.410;13.242;2022-12-19T13:31:24;32.30;;;12.82;;
70924;SDS011;58577;52.410;13.242;2022-12-19T13:34:18;35.00;;;14.52;;
70924;SDS011;58577;52.410;13.242;2022-12-19T13:42:47;31.48;;;13.07;;
70924;SDS011;58577;52.410;13.242;2022-12-19T13:46:05;33.95;;;14.32;;
70924;SDS011;58577;52.410;13.242;2022-12-19T13:49:14;37.55;;;14.45;;
70924;SDS011;58577;52.410;13.242;2022-12-19T13:52:03;36.00;;;14.23;;
70924;SDS011;58577;52.410;13.242;2022-12-19T13:54:50;36.00;;;14.73;;
70924;SDS011;58577;52.410;13.242;2022-12-19T13:57:46;32.70;;;13.07;;
70924;SDS011;58577;52.410;13.242;2022-12-19T14:00:35;37.75;;;16.20;;
70924;SDS011;58577;52.410;13.242;2022-12-19T14:03:36;32.95;;;14.55;;
70924;SDS011;58577;52.410;13.242;2022-12-19T14:06:26;37.15;;;15.50;;
70924;SDS011;58577;52.410;13.242;2022-12-19T14:12:21;40.17;;;16.77;;
70924;SDS011;58577;52.410;13.242;2022-12-19T14:15:32;38.15;;;15.40;;
70924;SDS011;58577;52.410;13.242;2022-12-19T14:21:13;41.35;;;15.90;;
70924;SDS011;58577;52.410;13.242;2022-12-19T14:24:08;38.20;;;15.43;;
70924;SDS011;58577;52.410;13.242;2022-12-19T14:27:04;35.97;;;14.35;;
70924;SDS011;58577;52.410;13.242;2022-12-19T14:29:56;42.67;;;16.05;;
70924;SDS011;58577;52.410;13.242;2022-12-19T14:32:43;38.38;;;15.07;;
70924;SDS011;58577;52.410;13.242;2022-12-19T14:35:38;40.45;;;16.83;;
70924;SDS011;58577;52.410;13.242;2022-12-19T14:38:30;41.78;;;16.25;;
70924;SDS011;58577;52.410;13.242;2022-12-19T14:41:18;40.47;;;16.52;;
70924;SDS011;58577;52.410;13.242;2022-12-19T14:47:36;31.55;;;13.30;;
70924;SDS011;58577;52.410;13.242;2022-12-19T14:50:28;31.17;;;13.65;;
70924;SDS011;58577;52.410;13.242;2022-12-19T14:53:19;41.45;;;17.05;;
70924;SDS011;58577;52.410;13.242;2022-12-19T14:56:07;34.20;;;14.80;;
70924;SDS011;58577;52.410;13.242;2022-12-19T14:58:56;39.97;;;15.00;;
70924;SDS011;58577;52.410;13.242;2022-12-19T15:01:48;42.40;;;15.63;;
70924;SDS011;58577;52.410;13.242;2022-12-19T15:07:28;39.70;;;15.43;;
70924;SDS011;58577;52.410;13.242;2022-12-19T15:10:27;39.40;;;15.85;;
70924;SDS011;58577;52.410;13.242;2022-12-19T15:13:22;46.70;;;17.63;;
70924;SDS011;58577;52.410;13.242;2022-12-19T15:16:22;39.33;;;15.43;;
70924;SDS011;58577;52.410;13.242;2022-12-19T15:19:10;42.10;;;16.27;;
70924;SDS011;58577;52.410;13.242;2022-12-19T15:21:57;37.25;;;16.90;;
70924;SDS011;58577;52.410;13.242;2022-12-19T15:24:43;42.33;;;15.63;;
70924;SDS011;58577;52.410;13.242;2022-12-19T15:27:29;40.17;;;15.40;;
70924;SDS011;58577;52.410;13.242;2022-12-19T15:30:16;42.08;;;16.48;;
70924;SDS011;58577;52.410;13.242;2022-12-19T15:33:14;40.95;;;15.15;;
70924;SDS011;58577;52.410;13.242;2022-12-19T15:36:01;46.28;;;16.10;;
70924;SDS011;58577;52.410;13.242;2022-12-19T15:38:47;43.50;;;16.98;;
70924;SDS011;58577;52.410;13.242;2022-12-19T15:41:33;39.30;;;15.52;;
70924;SDS011;58577;52.410;13.242;2022-12-19T15:44:21;39.75;;;17.17;;
70924;SDS011;58577;52.410;13.242;2022-12-19T15:47:17;41.42;;;15.65;;
70924;SDS011;58577;52.410;13.242;2022-12-19T15:50:25;44.15;;;17.40;;
70924;SDS011;58577;52.410;13.242;2022-12-19T15:53:33;39.88;;;15.50;;
70924;SDS011;58577;52.410;13.242;2022-12-19T15:59:17;41.65;;;16.77;;
70924;SDS011;58577;52.410;13.242;2022-12-19T16:02:11;44.00;;;16.45;;
70924;SDS011;58577;52.410;13.242;2022-12-19T16:05:04;38.45;;;15.95;;
70924;SDS011;58577;52.410;13.242;2022-12-19T16:07:51;47.17;;;17.70;;
70924;SDS011;58577;52.410;13.242;2022-12-19T16:10:36;41.25;;;16.70;;
70924;SDS011;58577;52.410;13.242;2022-12-19T16:13:23;47.65;;;18.17;;
70924;SDS011;58577;52.410;13.242;2022-12-19T16:16:10;48.03;;;18.02;;
70924;SDS011;58577;52.410;13.242;2022-12-19T16:18:57;42.50;;;16.45;;
70924;SDS011;58577;52.410;13.242;2022-12-19T16:21:42;38.65;;;16.75;;
70924;SDS011;58577;52.410;13.242;2022-12-19T16:24:29;42.25;;;16.42;;
70924;SDS011;58577;52.410;13.242;2022-12-19T16:27:25;48.33;;;18.38;;
70924;SDS011;58577;52.410;13.242;2022-12-19T16:30:17;38.35;;;14.50;;
70924;SDS011;58577;52.410;13.242;2022-12-19T16:33:08;40.90;;;15.98;;
70924;SDS011;58577;52.410;13.242;2022-12-19T16:36:02;46.08;;;16.48;;
70924;SDS011;58577;52.410;13.242;2022-12-19T16:38:48;41.95;;;18.17;;
70924;SDS011;58577;52.410;13.242;2022-12-19T16:41:35;40.08;;;16.88;;
70924;SDS011;58577;52.410;13.242;2022-12-19T16:44:28;36.83;;;16.40;;
70924;SDS011;58577;52.410;13.242;2022-12-19T16:47:16;41.97;;;16.40;;
70924;SDS011;58577;52.410;13.242;2022-12-19T16:50:09;42.33;;;16.95;;
70924;SDS011;58577;52.410;13.242;2022-12-19T16:53:04;42.90;;;16.17;;
70924;SDS011;58577;52.410;13.242;2022-12-19T16:55:50;38.50;;;16.27;;
70924;SDS011;58577;52.410;13.242;2022-12-19T16:58:37;41.50;;;17.88;;
70924;SDS011;58577;52.410;13.242;2022-12-19T17:01:26;43.35;;;17.80;;
70924;SDS011;58577;52.410;13.242;2022-12-19T17:04:13;40.05;;;16.60;;
70924;SDS011;58577;52.410;13.242;2022-12-19T17:07:09;39.50;;;16.77;;
70924;SDS011;58577;52.410;13.242;2022-12-19T17:09:55;39.80;;;16.38;;
70924;SDS011;58577;52.410;13.242;2022-12-19T17:12:41;41.42;;;16.85;;
70924;SDS011;58577;52.410;13.242;2022-12-19T17:15:29;45.53;;;17.52;;
70924;SDS011;58577;52.410;13.242;2022-12-19T17:18:27;41.72;;;16.88;;
70924;SDS011;58577;52.410;13.242;2022-12-19T17:21:18;40.40;;;15.83;;
70924;SDS011;58577;52.410;13.242;2022-12-19T17:24:09;44.83;;;17.80;;
70924;SDS011;58577;52.410;13.242;2022-12-19T17:26:57;38.72;;;17.13;;
70924;SDS011;58577;52.410;13.242;2022-12-19T17:29:43;41.28;;;17.33;;
70924;SDS011;58577;52.410;13.242;2022-12-19T17:32:31;41.67;;;17.23;;
70924;SDS011;58577;52.410;13.242;2022-12-19T17:35:18;47.70;;;18.73;;
70924;SDS011;58577;52.410;13.242;2022-12-19T17:38:08;39.92;;;15.90;;
70924;SDS011;58577;52.410;13.242;2022-12-19T17:40:57;40.72;;;16.77;;
70924;SDS011;58577;52.410;13.242;2022-12-19T17:43:43;43.10;;;18.20;;
70924;SDS011;58577;52.410;13.242;2022-12-19T17:46:29;42.53;;;17.95;;
70924;SDS011;58577;52.410;13.242;2022-12-19T17:49:33;41.10;;;18.52;;
70924;SDS011;58577;52.410;13.242;2022-12-19T17:52:19;49.65;;;18.10;;
70924;SDS011;58577;52.410;13.242;2022-12-19T17:55:19;42.40;;;18.30;;
70924;SDS011;58577;52.410;13.242;2022-12-19T17:58:09;40.40;;;17.75;;
70924;SDS011;58577;52.410;13.242;2022-12-19T18:00:55;46.30;;;18.65;;
70924;SDS011;58577;52.410;13.242;2022-12-19T18:03:41;45.58;;;18.75;;
70924;SDS011;58577;52.410;13.242;2022-12-19T18:06:27;48.65;;;17.75;;
70924;SDS011;58577;52.410;13.242;2022-12-19T18:09:19;45.80;;;19.23;;